Terminal Aerodrome Forecast
Issued by NWS

Home | Current Version | Previous Version | Text Only | Print | Product List | Glossary On
Versions: 1 2 3 4 5 6 7 8 9 10 11 12 13 14 15 16 17 18 19 20 21 22 23
000
FTUS43 KILX 282300
TAFBMI
TAF
KBMI 282328Z 2900/2924 16014G22KT P6SM SCT120 OVC250
     FM290300 17012G20KT P6SM OVC120
     FM291100 19010KT P6SM OVC015
     FM291300 28012KT P6SM VCSH OVC015
     FM291700 32020G28KT P6SM OVC015=

USA.gov is the U.S. government's official web portal to all federal, state and local government web resources and services.